Time;durP1;ratioP1;P1;durP2;ratioP2;P2;SDS_P1;SDS_P2;PMS_P1;PMS_P2;Temp;Humidity;BMP_temperature;BMP_pressure;BME280_temperature;BME280_humidity;BME280_pressure;Samples;Min_cycle;Max_cycle;Signal;HPM_P1;HPM_P2
2022/01/18 00:00:53;;;;;;;;;29.75;26.75;;;;;-147.17;100.00;50336.13;5016104;28;51389;-60
2022/01/18 00:03:18;;;;;;;;;26.75;24.00;;;;;-147.17;100.00;50302.69;5016899;28;53919;-59
2022/01/18 00:05:47;;;;;;;;;30.00;29.00;;;;;-147.17;100.00;50324.31;5012373;28;52144;-61
2022/01/18 00:08:15;;;;;;;;;34.75;29.25;;;;;-147.17;100.00;50324.31;5021339;28;51298;-60
2022/01/18 00:10:40;;;;;;;;;22.00;20.50;;;;;-147.17;100.00;50332.19;5016926;28;51332;-60
2022/01/18 00:15:40;;;;;;;;;30.50;25.50;;;;;-147.17;100.00;50310.56;5028456;28;51296;-60
2022/01/18 00:20:48;;;;;;;;;26.50;25.50;;;;;-147.17;100.00;50332.19;5011705;28;51599;-59
2022/01/18 00:23:14;;;;;;;;;24.50;24.00;;;;;-147.17;100.00;50332.19;5017785;28;51892;-60
2022/01/18 00:25:43;;;;;;;;;25.50;24.00;;;;;-147.17;100.00;50340.06;5013211;28;51123;-60
2022/01/18 00:28:09;;;;;;;;;21.25;21.25;;;;;-147.17;100.00;50328.25;5023847;28;51154;-58
2022/01/18 00:35:31;;;;;;;;;22.75;22.75;;;;;-147.17;100.00;50345.97;5015441;28;51224;-60
2022/01/18 00:37:58;;;;;;;;;25.00;23.50;;;;;-147.17;100.00;50363.69;5024594;28;51112;-59
2022/01/18 00:40:24;;;;;;;;;23.75;22.50;;;;;-147.17;100.00;50338.09;5016505;28;51148;-59
2022/01/18 00:42:50;;;;;;;;;23.50;22.50;;;;;-147.17;100.00;50340.06;5022401;28;51735;-61
2022/01/18 00:45:15;;;;;;;;;27.00;26.00;;;;;-147.17;100.00;50334.16;5021836;28;51207;-60
2022/01/18 00:47:41;;;;;;;;;30.25;26.75;;;;;-147.17;100.00;50347.94;5017269;28;51223;-61
2022/01/18 00:50:07;;;;;;;;;43.75;39.00;;;;;-147.17;100.00;50347.94;5020624;28;51752;-60
2022/01/18 00:52:38;;;;;;;;;51.00;43.50;;;;;-147.17;100.00;50355.81;5024150;28;52691;-61
2022/01/18 00:55:04;;;;;;;;;60.75;50.25;;;;;-147.17;100.00;50351.88;5016644;28;51169;-60
2022/01/18 00:57:29;;;;;;;;;64.75;52.00;;;;;-147.17;100.00;50347.94;5021418;28;51200;-63
2022/01/18 00:59:54;;;;;;;;;62.25;49.75;;;;;-147.17;100.00;50336.13;5023663;28;51685;-60
2022/01/18 01:02:20;;;;;;;;;62.00;50.75;;;;;-147.17;100.00;50344.00;5018269;28;52814;-62
2022/01/18 01:04:49;;;;;;;;;57.25;48.75;;;;;-147.17;100.00;50347.94;5024981;28;51212;-61
2022/01/18 01:07:19;;;;;;;;;66.00;52.00;;;;;-147.17;100.00;50353.84;5020588;28;51932;-60
2022/01/18 01:09:45;;;;;;;;;61.25;50.00;;;;;-147.17;100.00;50334.16;5020567;28;51287;-60
2022/01/18 01:12:11;;;;;;;;;66.50;52.00;;;;;-147.17;100.00;50347.94;5027754;28;50971;-61
2022/01/18 01:14:38;;;;;;;;;59.50;49.25;;;;;-147.17;100.00;50347.94;5016760;28;51129;-61
2022/01/18 01:17:37;;;;;;;;;56.25;47.50;;;;;-147.17;100.00;50359.75;5028984;28;51275;-61
2022/01/18 01:34:04;;;;;;;;;65.75;52.00;;;;;-147.17;100.00;50344.00;5021969;28;51695;-61
2022/01/18 01:42:01;;;;;;;;;61.50;51.25;;;;;-147.17;100.00;50355.81;5021377;28;51102;-61
2022/01/18 01:44:40;;;;;;;;;55.50;43.00;;;;;-147.17;100.00;50336.13;5017407;28;51688;-61
2022/01/18 01:47:05;;;;;;;;;52.25;40.75;;;;;-147.17;100.00;50355.81;5026745;28;51187;-61
2022/01/18 01:49:31;;;;;;;;;48.75;41.75;;;;;-147.17;100.00;50379.44;5019745;28;51058;-61
2022/01/18 01:51:57;;;;;;;;;52.00;43.75;;;;;-147.17;100.00;50347.94;5029999;28;51296;-61
2022/01/18 01:54:22;;;;;;;;;43.00;38.25;;;;;-147.17;100.00;50391.25;5030198;28;51762;-61
2022/01/18 01:56:48;;;;;;;;;41.00;38.75;;;;;-147.17;100.00;50363.69;5024994;28;51403;-61
2022/01/18 01:59:14;;;;;;;;;31.75;28.50;;;;;-147.17;100.00;50367.63;5013287;28;51193;-60
2022/01/18 02:01:46;;;;;;;;;33.75;31.75;;;;;-147.17;100.00;50324.31;5030418;28;51371;-61
2022/01/18 02:04:13;;;;;;;;;41.75;33.25;;;;;-147.17;100.00;50344.00;5020897;28;51333;-61
2022/01/18 02:06:39;;;;;;;;;37.50;29.25;;;;;-147.17;100.00;50310.56;5027878;28;51236;-60
2022/01/18 02:09:05;;;;;;;;;37.75;33.75;;;;;-147.17;100.00;50355.81;5019597;28;51117;-61
2022/01/18 02:11:31;;;;;;;;;37.75;34.25;;;;;-147.17;100.00;50367.63;5018329;28;51182;-61
2022/01/18 02:13:57;;;;;;;;;38.75;33.75;;;;;-147.17;100.00;50363.69;5019179;28;52413;-60
2022/01/18 02:21:51;;;;;;;;;31.50;29.25;;;;;-147.17;100.00;50365.66;5019155;28;52912;-60
2022/01/18 02:24:20;;;;;;;;;33.75;28.50;;;;;-147.17;100.00;50328.25;5016627;28;52614;-61
2022/01/18 02:26:46;;;;;;;;;24.50;24.00;;;;;-147.17;100.00;50344.00;5021835;28;51271;-60
2022/01/18 02:29:12;;;;;;;;;32.00;24.50;;;;;-147.17;100.00;50342.03;5026717;28;51099;-60
2022/01/18 02:31:38;;;;;;;;;31.25;28.75;;;;;-147.17;100.00;50338.09;5022053;28;51145;-61
2022/01/18 02:34:09;;;;;;;;;39.00;31.50;;;;;-147.17;100.00;50320.38;5021616;28;51910;-60
2022/01/18 02:36:34;;;;;;;;;32.25;30.50;;;;;-147.17;100.00;50334.16;5025986;28;51103;-61
2022/01/18 02:39:01;;;;;;;;;25.50;22.25;;;;;-147.17;100.00;50351.88;5018281;28;51370;-60
2022/01/18 02:41:31;;;;;;;;;41.75;34.50;;;;;-147.17;100.00;50330.22;5018609;28;51093;-60
2022/01/18 02:44:01;;;;;;;;;25.00;23.25;;;;;-147.17;100.00;50286.94;5026250;28;51264;-60
2022/01/18 02:46:27;;;;;;;;;30.50;27.25;;;;;-147.17;100.00;50304.66;5019117;28;51215;-59
2022/01/18 02:48:54;;;;;;;;;29.50;26.25;;;;;-147.17;100.00;50316.44;5017856;28;51279;-59
2022/01/18 02:51:20;;;;;;;;;24.75;23.25;;;;;-147.17;100.00;50314.47;5014928;28;52391;-59
2022/01/18 02:53:55;;;;;;;;;28.75;24.00;;;;;-147.17;100.00;50300.72;5030505;28;51561;-60
2022/01/18 02:56:22;;;;;;;;;26.50;24.25;;;;;-147.17;100.00;50320.38;5026778;28;51164;-60
2022/01/18 02:58:47;;;;;;;;;28.00;22.75;;;;;-147.17;100.00;50286.94;5014540;28;51184;-60
2022/01/18 03:03:56;;;;;;;;;27.50;26.50;;;;;-147.17;100.00;50314.47;5023533;28;51018;-60
2022/01/18 03:06:22;;;;;;;;;28.50;25.00;;;;;-147.17;100.00;50286.94;5011697;28;51259;-60
2022/01/18 03:08:47;;;;;;;;;27.25;23.50;;;;;-147.17;100.00;50320.38;5016878;28;51301;-60
2022/01/18 03:11:12;;;;;;;;;28.00;26.00;;;;;-147.17;100.00;50312.53;5022529;28;51175;-60
2022/01/18 03:13:38;;;;;;;;;32.00;28.75;;;;;-147.17;100.00;50296.78;5014578;28;51213;-60
2022/01/18 03:16:04;;;;;;;;;24.75;23.50;;;;;-147.17;100.00;50326.28;5022660;28;51181;-60
2022/01/18 03:18:29;;;;;;;;;28.00;23.75;;;;;-147.17;100.00;50328.25;5028225;28;51041;-59
2022/01/18 03:20:55;;;;;;;;;23.75;21.50;;;;;-147.17;100.00;50316.44;5020867;28;50915;-59
2022/01/18 03:23:22;;;;;;;;;25.00;21.00;;;;;-147.17;100.00;50340.06;5018906;28;51705;-61
2022/01/18 03:25:57;;;;;;;;;27.00;23.50;;;;;-147.17;100.00;50322.34;5019105;28;51126;-59
2022/01/18 03:28:24;;;;;;;;;24.50;23.75;;;;;-147.17;100.00;50308.59;5025152;28;51158;-60
2022/01/18 03:30:54;;;;;;;;;26.50;25.25;;;;;-147.17;100.00;50351.88;5016427;28;53657;-59
2022/01/18 03:33:22;;;;;;;;;26.75;24.00;;;;;-147.17;100.00;50324.31;5012431;28;51415;-61
2022/01/18 03:35:49;;;;;;;;;25.00;23.25;;;;;-147.17;100.00;50316.44;5024152;28;51151;-61
2022/01/18 03:38:17;;;;;;;;;28.50;23.50;;;;;-147.17;100.00;50351.88;5015721;28;51332;-64
2022/01/18 03:40:42;;;;;;;;;29.75;24.50;;;;;-147.17;100.00;50304.66;5020660;28;51130;-61
2022/01/18 03:43:11;;;;;;;;;28.75;27.00;;;;;-147.17;100.00;50351.88;5021962;28;51871;-61
2022/01/18 03:45:43;;;;;;;;;24.75;24.00;;;;;-147.17;100.00;50332.19;5016759;28;52608;-59
2022/01/18 03:48:15;;;;;;;;;24.25;23.25;;;;;-147.17;100.00;50338.09;5013105;28;51219;-62
2022/01/18 03:50:41;;;;;;;;;28.00;24.50;;;;;-147.17;100.00;50330.22;5012543;28;51199;-60
2022/01/18 03:53:09;;;;;;;;;23.50;22.50;;;;;-147.17;100.00;50330.22;5032420;28;51871;-60
2022/01/18 03:55:34;;;;;;;;;30.50;25.00;;;;;-147.17;100.00;50312.53;5022547;28;51245;-60
2022/01/18 03:58:00;;;;;;;;;29.50;27.50;;;;;-147.17;100.00;50371.56;5019576;28;50948;-59
2022/01/18 04:00:28;;;;;;;;;30.00;26.00;;;;;-147.17;100.00;50334.16;5016175;28;51355;-60
2022/01/18 04:02:55;;;;;;;;;25.75;22.50;;;;;-147.17;100.00;50328.25;5023697;28;52167;-60
2022/01/18 04:05:22;;;;;;;;;25.75;18.25;;;;;-147.17;100.00;50326.28;5025672;28;51095;-61
2022/01/18 04:07:48;;;;;;;;;29.50;25.50;;;;;-147.17;100.00;50351.88;5023140;28;51451;-60
2022/01/18 04:10:13;;;;;;;;;28.00;22.75;;;;;-147.17;100.00;50351.88;5014005;28;52621;-60
2022/01/18 04:12:39;;;;;;;;;31.50;28.75;;;;;-147.17;100.00;50361.72;5019688;28;51935;-60
2022/01/18 04:15:08;;;;;;;;;28.25;27.00;;;;;-147.17;100.00;50355.81;5023515;28;51111;-60
2022/01/18 04:30:47;;;;;;;;;31.75;27.00;;;;;-147.17;100.00;50347.94;5014843;28;51151;-60
2022/01/18 04:33:12;;;;;;;;;32.00;25.75;;;;;-147.17;100.00;50363.69;5023010;28;51364;-60
2022/01/18 04:35:37;;;;;;;;;27.25;24.00;;;;;-147.17;100.00;50355.81;5017864;28;51301;-60
2022/01/18 04:38:03;;;;;;;;;23.50;20.50;;;;;-147.17;100.00;50340.06;5030920;28;51589;-60
2022/01/18 04:40:31;;;;;;;;;25.00;22.00;;;;;-147.17;100.00;50357.78;5019377;28;51359;-60
2022/01/18 04:48:29;;;;;;;;;26.25;24.50;;;;;-147.17;100.00;50351.88;5022597;28;51051;-59
2022/01/18 04:51:07;;;;;;;;;29.50;25.75;;;;;-147.17;100.00;50328.25;5019492;28;51166;-60
2022/01/18 04:53:35;;;;;;;;;30.25;28.00;;;;;-147.17;100.00;50344.00;5013893;28;50955;-61
2022/01/18 04:56:06;;;;;;;;;32.00;26.00;;;;;-147.17;100.00;50338.09;5016687;28;51364;-60
2022/01/18 04:58:33;;;;;;;;;23.25;20.00;;;;;-147.17;100.00;50308.59;5011780;28;50996;-60
2022/01/18 05:01:00;;;;;;;;;26.25;24.50;;;;;-147.17;100.00;50316.44;5024023;28;51428;-60
2022/01/18 05:03:28;;;;;;;;;29.50;25.00;;;;;-147.17;100.00;50369.59;5027856;28;51837;-61
2022/01/18 05:05:56;;;;;;;;;30.00;27.25;;;;;-147.17;100.00;50324.31;5015055;28;51224;-60
2022/01/18 05:08:26;;;;;;;;;34.75;28.25;;;;;-147.17;100.00;50355.81;5021615;28;51138;-61
2022/01/18 05:10:57;;;;;;;;;20.75;20.25;;;;;-147.17;100.00;50351.88;5017991;28;51415;-61
2022/01/18 05:21:27;;;;;;;;;31.25;25.25;;;;;-147.17;100.00;50336.13;5019111;28;51237;-60
2022/01/18 05:23:54;;;;;;;;;29.25;25.75;;;;;-147.17;100.00;50322.34;5017944;28;51086;-59
2022/01/18 05:26:20;;;;;;;;;30.25;28.75;;;;;-147.17;100.00;50342.03;5018450;28;51107;-60
2022/01/18 05:28:46;;;;;;;;;35.25;30.75;;;;;-147.17;100.00;50344.00;5011798;28;51194;-61
2022/01/18 05:31:12;;;;;;;;;34.75;29.75;;;;;-147.17;100.00;50355.81;5016420;28;51043;-60
2022/01/18 05:33:40;;;;;;;;;36.25;31.25;;;;;-147.17;100.00;50336.13;5027760;28;51908;-59
2022/01/18 05:36:06;;;;;;;;;32.75;27.50;;;;;-147.17;100.00;50355.81;5017574;28;51206;-59
2022/01/18 05:38:33;;;;;;;;;26.75;26.25;;;;;-147.17;100.00;50345.97;5025362;28;51134;-59
2022/01/18 05:40:59;;;;;;;;;31.50;29.50;;;;;-147.17;100.00;50347.94;5016167;28;51421;-59
2022/01/18 05:43:24;;;;;;;;;33.75;27.50;;;;;-147.17;100.00;50324.31;5020823;28;51810;-59
2022/01/18 05:45:50;;;;;;;;;27.25;24.50;;;;;-147.17;100.00;50344.00;5019849;28;51116;-61
2022/01/18 05:48:15;;;;;;;;;31.75;27.75;;;;;-147.17;100.00;50316.44;5013980;28;51190;-61
2022/01/18 05:50:41;;;;;;;;;29.25;27.00;;;;;-147.17;100.00;50318.41;5020330;28;51444;-61
2022/01/18 05:53:06;;;;;;;;;25.00;22.50;;;;;-147.17;100.00;50332.19;5020597;28;52287;-61
2022/01/18 05:55:32;;;;;;;;;18.75;15.75;;;;;-147.17;100.00;50340.06;5026758;28;51083;-61
2022/01/18 05:57:57;;;;;;;;;23.75;21.75;;;;;-147.17;100.00;50336.13;5017973;28;51122;-60
2022/01/18 06:00:24;;;;;;;;;25.25;20.50;;;;;-147.17;100.00;50371.56;5017809;28;51428;-60
2022/01/18 06:07:59;;;;;;;;;18.00;16.50;;;;;-147.17;100.00;50344.00;5017145;28;51212;-61
2022/01/18 06:10:25;;;;;;;;;24.00;19.75;;;;;-147.17;100.00;50334.16;5016996;28;51267;-61
2022/01/18 06:12:51;;;;;;;;;22.25;20.00;;;;;-147.17;100.00;50351.88;5017843;28;51726;-61
2022/01/18 06:15:18;;;;;;;;;19.25;16.00;;;;;-147.17;100.00;50342.03;5017113;28;51310;-60
2022/01/18 06:17:44;;;;;;;;;16.75;15.50;;;;;-147.17;100.00;50330.22;5029051;28;51318;-61
2022/01/18 06:20:10;;;;;;;;;24.00;20.25;;;;;-147.17;100.00;50316.44;5014556;28;51343;-60
2022/01/18 06:22:35;;;;;;;;;24.50;20.50;;;;;-147.17;100.00;50326.28;5025925;28;52602;-60
2022/01/18 06:25:01;;;;;;;;;24.25;20.50;;;;;-147.17;100.00;50340.06;5024160;28;51184;-60
2022/01/18 06:27:26;;;;;;;;;25.25;24.00;;;;;-147.17;100.00;50314.47;5026511;28;51302;-60
2022/01/18 06:29:52;;;;;;;;;27.75;24.75;;;;;-147.17;100.00;50318.41;5029217;28;51245;-60
2022/01/18 06:32:18;;;;;;;;;24.25;20.50;;;;;-147.17;100.00;50332.19;5046568;28;53716;-59
2022/01/18 06:34:43;;;;;;;;;20.50;18.50;;;;;-147.17;100.00;50342.03;5024858;28;51235;-60
2022/01/18 06:37:09;;;;;;;;;23.00;22.50;;;;;-147.17;100.00;50349.91;5028781;28;51137;-59
2022/01/18 06:39:35;;;;;;;;;20.75;20.00;;;;;-147.17;100.00;50332.19;5021271;28;51577;-61
2022/01/18 06:42:01;;;;;;;;;24.25;20.75;;;;;-147.17;100.00;50357.78;5022333;28;51043;-61
2022/01/18 06:44:26;;;;;;;;;22.50;21.25;;;;;-147.17;100.00;50351.88;5019781;28;51167;-61
2022/01/18 06:46:53;;;;;;;;;28.00;23.00;;;;;-147.17;100.00;50332.19;5020868;28;50966;-61
2022/01/18 06:49:19;;;;;;;;;27.25;22.00;;;;;-147.17;100.00;50332.19;5018130;28;51306;-60
2022/01/18 06:51:44;;;;;;;;;27.00;22.75;;;;;-147.17;100.00;50357.78;5024239;28;51543;-61
2022/01/18 06:54:15;;;;;;;;;22.00;19.75;;;;;-147.17;100.00;50326.28;5023307;28;51126;-61
2022/01/18 06:56:46;;;;;;;;;25.50;24.75;;;;;-147.17;100.00;50355.81;5019348;28;51153;-61
2022/01/18 06:59:11;;;;;;;;;25.75;19.75;;;;;-147.17;100.00;50338.09;5012540;28;51362;-61
2022/01/18 07:01:37;;;;;;;;;21.25;20.75;;;;;-147.17;100.00;50324.31;5022866;28;51725;-59
2022/01/18 07:04:02;;;;;;;;;23.25;21.25;;;;;-147.17;100.00;50347.94;5026828;28;51217;-59
2022/01/18 07:06:28;;;;;;;;;31.50;26.75;;;;;-147.17;100.00;50351.88;5018361;28;51087;-60
2022/01/18 07:08:53;;;;;;;;;22.25;20.00;;;;;-147.17;100.00;50324.31;5022412;28;51231;-60
2022/01/18 07:11:20;;;;;;;;;26.75;22.50;;;;;-147.17;100.00;50355.81;5012271;28;51709;-60
2022/01/18 07:13:46;;;;;;;;;24.25;23.75;;;;;-147.17;100.00;50342.03;5013413;28;50893;-62
2022/01/18 07:16:11;;;;;;;;;23.50;21.25;;;;;-147.17;100.00;50320.38;5021804;28;51306;-60
2022/01/18 07:18:37;;;;;;;;;25.25;22.75;;;;;-147.17;100.00;50326.28;5015183;28;51383;-60
2022/01/18 07:21:02;;;;;;;;;23.75;23.50;;;;;-147.17;100.00;50312.53;5018679;28;52426;-60
2022/01/18 07:23:28;;;;;;;;;23.75;22.25;;;;;-147.17;100.00;50330.22;5020085;28;50956;-59
2022/01/18 07:25:53;;;;;;;;;20.00;19.00;;;;;-147.17;100.00;50336.13;5022487;28;51259;-59
2022/01/18 07:28:19;;;;;;;;;16.75;16.25;;;;;-147.17;100.00;50318.41;5015146;28;51083;-61
2022/01/18 07:30:46;;;;;;;;;20.00;19.00;;;;;-147.17;100.00;50292.84;5020548;28;51822;-61
2022/01/18 07:33:14;;;;;;;;;27.75;23.75;;;;;-147.17;100.00;50316.44;5010266;28;51739;-62
2022/01/18 07:35:41;;;;;;;;;19.75;19.25;;;;;-147.17;100.00;50308.59;5022544;28;51200;-59
2022/01/18 07:38:07;;;;;;;;;26.75;24.00;;;;;-147.17;100.00;50304.66;5013495;28;51171;-61
2022/01/18 07:40:34;;;;;;;;;24.00;21.00;;;;;-147.17;100.00;50340.06;5011479;28;52431;-60
2022/01/18 07:43:01;;;;;;;;;19.50;18.75;;;;;-147.17;100.00;50304.66;5017374;28;51153;-61
2022/01/18 07:45:28;;;;;;;;;28.50;27.00;;;;;-147.17;100.00;50326.28;5023244;28;51187;-61
2022/01/18 07:47:53;;;;;;;;;24.75;22.25;;;;;-147.17;100.00;50344.00;5030214;28;51414;-62
2022/01/18 07:50:19;;;;;;;;;30.50;27.00;;;;;-147.17;100.00;50340.06;5021312;28;51514;-62
2022/01/18 07:52:45;;;;;;;;;24.75;24.50;;;;;-147.17;100.00;50342.03;5023824;28;51437;-61
2022/01/18 07:55:10;;;;;;;;;25.75;24.75;;;;;-147.17;100.00;50320.38;5020257;28;51480;-62
2022/01/18 07:57:42;;;;;;;;;31.25;30.00;;;;;-147.17;100.00;50336.13;5023422;28;52168;-62
2022/01/18 08:00:17;;;;;;;;;29.50;28.50;;;;;-147.17;100.00;50300.72;5018869;28;53724;-61
2022/01/18 08:02:44;;;;;;;;;29.25;28.25;;;;;-147.17;100.00;50312.53;5013931;28;51080;-62
2022/01/18 08:05:11;;;;;;;;;30.75;28.25;;;;;-147.17;100.00;50345.97;5024767;28;51080;-62
2022/01/18 08:07:37;;;;;;;;;25.75;24.75;;;;;-147.17;100.00;50340.06;5019219;28;51361;-60
2022/01/18 08:10:04;;;;;;;;;25.50;21.75;;;;;-147.17;100.00;50316.44;5018510;28;51289;-61
2022/01/18 08:12:30;;;;;;;;;26.25;24.75;;;;;-147.17;100.00;50336.13;5010394;28;51232;-61
2022/01/18 08:15:01;;;;;;;;;25.00;22.50;;;;;-147.17;100.00;50340.06;5012129;28;51300;-61
2022/01/18 08:17:27;;;;;;;;;30.50;27.00;;;;;-147.17;100.00;50338.09;5020624;28;51391;-61
2022/01/18 08:19:52;;;;;;;;;28.25;25.25;;;;;-147.17;100.00;50322.34;5022128;28;51203;-61
2022/01/18 08:22:18;;;;;;;;;23.00;20.00;;;;;-147.17;100.00;50349.91;5018437;28;51068;-60
2022/01/18 08:24:43;;;;;;;;;24.00;23.75;;;;;-147.17;100.00;50349.91;5016137;28;51516;-61
2022/01/18 08:27:09;;;;;;;;;27.50;24.00;;;;;-147.17;100.00;50363.69;5021934;28;51448;-62
2022/01/18 08:29:36;;;;;;;;;18.00;17.00;;;;;-147.17;100.00;50320.38;5022693;28;51408;-62
2022/01/18 08:32:06;;;;;;;;;32.00;28.50;;;;;-147.17;100.00;50367.63;5020333;28;51138;-62
2022/01/18 08:34:31;;;;;;;;;23.50;21.75;;;;;-147.17;100.00;50355.81;5012661;28;51215;-62
2022/01/18 08:36:57;;;;;;;;;30.00;24.25;;;;;-147.17;100.00;50347.94;5019007;28;50996;-62
2022/01/18 08:39:22;;;;;;;;;23.75;20.50;;;;;-147.17;100.00;50347.94;5021975;28;52182;-62
2022/01/18 08:41:48;;;;;;;;;25.00;24.75;;;;;-147.17;100.00;50340.06;5027129;28;51133;-63
2022/01/18 08:44:13;;;;;;;;;25.25;24.50;;;;;-147.17;100.00;50381.41;5028237;28;51178;-62
2022/01/18 08:46:39;;;;;;;;;22.75;21.00;;;;;-147.17;100.00;50363.69;5020988;28;50977;-63
2022/01/18 08:49:06;;;;;;;;;21.50;21.50;;;;;-147.17;100.00;50361.72;5028624;28;53464;-63
2022/01/18 08:51:31;;;;;;;;;22.25;20.50;;;;;-147.17;100.00;50363.69;5006107;28;51075;-60
2022/01/18 08:53:57;;;;;;;;;22.00;20.75;;;;;-147.17;100.00;50359.75;5020769;28;51149;-61
2022/01/18 08:56:23;;;;;;;;;21.50;18.75;;;;;-147.17;100.00;50349.91;5019353;28;51279;-61
2022/01/18 08:58:49;;;;;;;;;25.50;20.75;;;;;-147.17;100.00;50367.63;5031192;28;53060;-62
2022/01/18 09:01:16;;;;;;;;;22.50;21.75;;;;;-147.17;100.00;50345.97;5027804;28;50998;-62
2022/01/18 09:03:42;;;;;;;;;24.25;22.50;;;;;-147.17;100.00;50300.72;5021657;28;50960;-61
2022/01/18 09:06:13;;;;;;;;;33.25;29.25;;;;;-147.17;100.00;50328.25;5011245;28;51000;-62
2022/01/18 09:08:40;;;;;;;;;34.50;31.25;;;;;-147.17;100.00;50336.13;5024798;28;51091;-62
2022/01/18 09:11:06;;;;;;;;;30.75;26.75;;;;;-147.17;100.00;50328.25;5031750;28;51230;-61
2022/01/18 09:13:34;;;;;;;;;31.00;30.25;;;;;-147.17;100.00;50334.16;5031546;28;51006;-62
2022/01/18 09:16:00;;;;;;;;;26.75;25.50;;;;;-147.17;100.00;50351.88;5029080;28;51258;-62
2022/01/18 09:18:25;;;;;;;;;29.50;27.00;;;;;-147.17;100.00;50359.75;5015553;28;51189;-64
2022/01/18 09:20:51;;;;;;;;;30.00;28.50;;;;;-147.17;100.00;50347.94;5023716;28;51039;-65
2022/01/18 09:23:16;;;;;;;;;35.50;31.50;;;;;-147.17;100.00;50340.06;5027594;28;51136;-64
2022/01/18 09:25:42;;;;;;;;;29.50;28.50;;;;;-147.17;100.00;50365.66;5034458;28;50959;-63
2022/01/18 09:28:08;;;;;;;;;30.25;23.75;;;;;-147.17;100.00;50351.88;5033591;28;54074;-63
2022/01/18 09:30:34;;;;;;;;;32.00;27.00;;;;;-147.17;100.00;50316.44;5033630;28;51035;-63
2022/01/18 09:33:01;;;;;;;;;35.25;30.75;;;;;-147.17;100.00;50336.13;5023622;28;51022;-62
2022/01/18 09:35:27;;;;;;;;;33.25;28.50;;;;;-147.17;100.00;50336.13;5034961;28;51097;-61
2022/01/18 09:37:52;;;;;;;;;36.00;32.25;;;;;-147.17;100.00;50344.00;5034071;28;51282;-61
2022/01/18 09:40:20;;;;;;;;;39.75;36.50;;;;;-147.17;100.00;50336.13;5016557;28;51187;-62
2022/01/18 09:42:54;;;;;;;;;36.50;35.25;;;;;-147.17;100.00;50330.22;5015259;28;50987;-63
2022/01/18 09:45:21;;;;;;;;;30.00;28.00;;;;;-147.17;100.00;50328.25;5015267;28;51059;-63
2022/01/18 09:47:48;;;;;;;;;36.00;30.00;;;;;-147.17;100.00;50316.44;5015216;28;50978;-63
2022/01/18 09:50:18;;;;;;;;;46.00;39.25;;;;;-147.17;100.00;50340.06;5029288;28;51144;-63
2022/01/18 09:52:43;;;;;;;;;37.00;35.75;;;;;-147.17;100.00;50308.59;5015070;28;51051;-62
2022/01/18 09:55:09;;;;;;;;;42.75;38.25;;;;;-147.17;100.00;50328.25;5015221;28;51095;-62
2022/01/18 09:57:37;;;;;;;;;45.75;37.75;;;;;-147.17;100.00;50318.41;5015156;28;51759;-62
2022/01/18 10:00:06;;;;;;;;;32.25;30.50;;;;;-147.17;100.00;50324.31;5025643;28;51240;-62
2022/01/18 10:02:31;;;;;;;;;30.25;27.00;;;;;-147.17;100.00;50308.59;5013889;28;50999;-62
2022/01/18 10:04:59;;;;;;;;;36.00;32.75;;;;;-147.17;100.00;50332.19;5033558;28;51162;-62
2022/01/18 10:07:36;;;;;;;;;35.00;32.50;;;;;-147.17;100.00;50328.25;5034625;28;51100;-61
2022/01/18 10:10:05;;;;;;;;;40.50;35.75;;;;;-147.17;100.00;50312.53;5032076;28;51047;-62
2022/01/18 10:12:30;;;;;;;;;30.00;27.00;;;;;-147.17;100.00;50320.38;5021398;28;50936;-63
2022/01/18 10:14:58;;;;;;;;;36.75;32.50;;;;;-147.17;100.00;50332.19;5035177;28;50913;-61
2022/01/18 10:17:36;;;;;;;;;38.25;34.25;;;;;-147.17;100.00;50277.09;5034345;28;51738;-62
2022/01/18 10:20:16;;;;;;;;;43.00;35.75;;;;;-147.17;100.00;50330.22;5017315;28;51186;-63
2022/01/18 10:22:48;;;;;;;;;38.25;34.50;;;;;-147.17;100.00;50338.09;5014716;28;50927;-63
2022/01/18 10:25:23;;;;;;;;;32.75;29.00;;;;;-147.17;100.00;50320.38;5014776;28;51325;-63
2022/01/18 10:27:51;;;;;;;;;32.25;30.25;;;;;-147.17;100.00;50308.59;5021460;28;53079;-62
2022/01/18 10:30:32;;;;;;;;;31.75;28.75;;;;;-147.17;100.00;50312.53;5032054;28;51113;-62
2022/01/18 10:33:28;;;;;;;;;31.00;28.25;;;;;-147.17;100.00;50318.41;5026227;28;51214;-62
2022/01/18 10:36:08;;;;;;;;;32.50;28.25;;;;;-147.17;100.00;50308.59;5025382;28;51341;-62
2022/01/18 10:38:34;;;;;;;;;29.25;25.00;;;;;-147.17;100.00;50306.63;5022704;28;51933;-62
2022/01/18 10:41:36;;;;;;;;;30.00;24.25;;;;;-147.17;100.00;50328.25;5015504;28;51028;-62
2022/01/18 10:44:13;;;;;;;;;37.00;34.00;;;;;-147.17;100.00;50345.97;5013883;28;51296;-62
2022/01/18 10:46:42;;;;;;;;;33.50;30.75;;;;;-147.17;100.00;50340.06;5023974;28;50944;-61
2022/01/18 10:49:08;;;;;;;;;30.25;28.00;;;;;-147.17;100.00;50322.34;5020056;28;51065;-62
2022/01/18 10:51:38;;;;;;;;;30.00;28.00;;;;;-147.17;100.00;50344.00;5032774;28;51022;-62
2022/01/18 10:54:09;;;;;;;;;35.00;29.50;;;;;-147.17;100.00;50336.13;5017643;28;50881;-62
2022/01/18 10:56:49;;;;;;;;;32.25;29.75;;;;;-147.17;100.00;50318.41;5025704;28;51190;-62
2022/01/18 10:59:22;;;;;;;;;32.25;29.00;;;;;-147.17;100.00;50318.41;5013482;28;51066;-62
2022/01/18 11:02:13;;;;;;;;;32.50;31.50;;;;;-147.17;100.00;50340.06;5013562;28;50954;-62
2022/01/18 11:04:42;;;;;;;;;32.00;30.75;;;;;-147.17;100.00;50334.16;5013992;28;50999;-62
2022/01/18 11:07:08;;;;;;;;;36.00;31.00;;;;;-147.17;100.00;50344.00;5029904;28;51019;-62
2022/01/18 11:09:34;;;;;;;;;30.75;28.00;;;;;-147.17;100.00;50359.75;5019845;28;51114;-62
2022/01/18 11:12:00;;;;;;;;;30.75;27.00;;;;;-147.17;100.00;50344.00;5033390;28;51057;-62
2022/01/18 11:14:26;;;;;;;;;27.50;26.25;;;;;-147.17;100.00;50312.53;5033503;28;50971;-62
2022/01/18 11:16:56;;;;;;;;;33.75;31.75;;;;;-147.17;100.00;50357.78;5030461;28;50985;-62
2022/01/18 11:21:50;;;;;;;;;26.25;25.50;;;;;-147.17;100.00;50332.19;5033279;28;51042;-62
2022/01/18 11:24:16;;;;;;;;;28.50;26.75;;;;;-147.17;100.00;50351.88;5032083;28;51008;-62
2022/01/18 11:26:46;;;;;;;;;27.25;24.25;;;;;-147.17;100.00;50273.16;5031074;28;51081;-63
2022/01/18 11:29:18;;;;;;;;;23.75;21.50;;;;;-147.17;100.00;50359.75;5016021;28;51853;-62
2022/01/18 11:31:48;;;;;;;;;16.75;16.00;;;;;-147.17;100.00;50332.19;5026369;28;51164;-63
2022/01/18 11:34:40;;;;;;;;;16.00;14.25;;;;;-147.17;100.00;50407.00;5027006;28;51121;-63
2022/01/18 11:37:17;;;;;;;;;13.50;13.00;;;;;-147.17;100.00;50525.13;5032999;28;51156;-62
2022/01/18 11:39:43;;;;;;;;;18.25;18.00;;;;;-147.17;100.00;50582.22;5026359;28;51951;-63
2022/01/18 11:42:12;;;;;;;;;10.25;10.25;;;;;-147.17;100.00;50777.13;5022640;28;51143;-63
2022/01/18 11:44:39;;;;;;;;;20.00;19.00;;;;;-147.17;100.00;50753.50;5031168;28;51110;-62
2022/01/18 11:47:06;;;;;;;;;14.25;13.50;;;;;-147.17;100.00;50916.91;5032345;28;51379;-62
2022/01/18 11:49:33;;;;;;;;;14.00;12.75;;;;;-147.17;100.00;50879.50;5029786;28;51230;-62
2022/01/18 11:52:04;;;;;;;;;13.00;12.33;;;;;-147.17;100.00;50857.84;5019194;28;51021;-62
2022/01/18 11:54:37;;;;;;;;;11.00;10.67;;;;;-147.17;100.00;50838.16;5017949;28;51084;-62
2022/01/18 11:57:19;;;;;;;;;18.00;15.50;;;;;-147.17;99.32;50909.03;5032760;28;51263;-61
2022/01/18 11:59:45;;;;;;;;;14.00;13.00;;;;;-147.17;94.92;50956.28;5014274;28;50951;-62
2022/01/18 12:02:11;;;;;;;;;13.00;13.00;;;;;-147.17;92.76;50974.00;5024527;28;51036;-62
2022/01/18 12:07:10;;;;;;;;;11.67;11.00;;;;;-147.17;91.47;50934.63;5030999;28;50912;-62
2022/01/18 12:09:38;;;;;;;;;10.33;10.00;;;;;-147.17;92.15;50899.19;5025937;28;52088;-62
2022/01/18 12:12:09;;;;;;;;;10.67;10.67;;;;;-147.17;93.72;50887.38;5004573;28;51028;-62